createdAt,value
2017-12-24T00:00:29.492Z,9.00
2017-12-24T00:02:56.947Z,8.90
2017-12-24T00:05:24.386Z,8.90
2017-12-24T00:07:51.852Z,8.90
2017-12-24T00:10:19.304Z,8.90
2017-12-24T00:12:46.783Z,8.90
2017-12-24T00:15:16.027Z,8.90
2017-12-24T00:17:44.223Z,8.90
2017-12-24T00:20:11.675Z,8.90
2017-12-24T00:22:39.108Z,8.90
2017-12-24T00:25:07.353Z,8.90
2017-12-24T00:27:34.911Z,8.90
2017-12-24T00:30:02.779Z,8.90
2017-12-24T00:32:34.450Z,8.90
2017-12-24T00:35:01.905Z,8.90
2017-12-24T00:37:29.368Z,8.80
2017-12-24T00:39:56.828Z,8.90
2017-12-24T00:42:25.068Z,8.80
2017-12-24T00:44:52.629Z,8.80
2017-12-24T00:47:20.096Z,8.90
2017-12-24T00:49:47.546Z,8.80
2017-12-24T00:52:15.007Z,8.90
2017-12-24T00:54:42.431Z,8.90
2017-12-24T00:57:09.880Z,8.90
2017-12-24T00:59:37.343Z,8.90
2017-12-24T01:02:04.784Z,8.90
2017-12-24T01:04:32.268Z,8.90
2017-12-24T01:06:59.716Z,8.90
2017-12-24T01:09:27.161Z,8.90
2017-12-24T01:11:54.624Z,8.90
2017-12-24T01:14:22.104Z,8.90
2017-12-24T01:16:49.556Z,8.80
2017-12-24T01:19:17.008Z,8.80
2017-12-24T01:21:44.464Z,8.80
2017-12-24T01:24:11.935Z,8.80
2017-12-24T01:26:39.368Z,8.80
2017-12-24T01:29:06.836Z,8.80
2017-12-24T01:31:34.289Z,8.80
2017-12-24T01:34:01.741Z,8.80
2017-12-24T01:36:29.169Z,8.80
2017-12-24T01:38:56.637Z,8.80
2017-12-24T01:41:24.063Z,8.80
2017-12-24T01:43:52.287Z,8.80
2017-12-24T01:46:19.721Z,8.80
2017-12-24T01:48:47.169Z,8.90
2017-12-24T01:51:14.689Z,8.80
2017-12-24T01:53:42.123Z,8.80
2017-12-24T01:56:09.567Z,8.90
2017-12-24T01:58:37.000Z,8.80
2017-12-24T02:01:04.452Z,8.80
2017-12-24T02:03:31.887Z,8.80
2017-12-24T02:05:59.340Z,8.80
2017-12-24T02:08:27.544Z,8.80
2017-12-24T02:10:55.001Z,8.80
2017-12-24T02:13:22.432Z,8.80
2017-12-24T02:15:49.886Z,8.80
2017-12-24T02:18:17.409Z,8.90
2017-12-24T02:20:44.965Z,8.90
2017-12-24T02:23:12.409Z,8.90
2017-12-24T02:25:39.844Z,8.90
2017-12-24T02:28:07.302Z,8.90
2017-12-24T02:30:34.779Z,8.80
2017-12-24T02:33:02.288Z,8.90
2017-12-24T02:35:29.736Z,8.90
2017-12-24T02:37:57.200Z,8.90
2017-12-24T02:40:25.396Z,8.90
2017-12-24T02:42:52.851Z,8.90
2017-12-24T02:45:20.314Z,8.90
2017-12-24T02:47:47.749Z,8.90
2017-12-24T02:50:15.203Z,8.90
2017-12-24T02:52:42.639Z,8.80
2017-12-24T02:55:10.855Z,8.80
2017-12-24T02:57:38.297Z,8.80
2017-12-24T03:00:05.747Z,8.80
2017-12-24T03:02:33.195Z,8.80
2017-12-24T03:05:00.778Z,8.70
2017-12-24T03:07:28.240Z,8.70
2017-12-24T03:09:55.693Z,8.70
2017-12-24T03:12:23.141Z,8.70
2017-12-24T03:14:50.580Z,8.70
2017-12-24T03:17:18.065Z,8.80
2017-12-24T03:19:45.508Z,8.70
2017-12-24T03:22:12.966Z,8.70
2017-12-24T03:24:40.404Z,8.70
2017-12-24T03:27:07.847Z,8.70
2017-12-24T03:29:36.044Z,8.70
2017-12-24T03:32:03.501Z,8.60
2017-12-24T03:34:30.964Z,8.60
2017-12-24T03:36:58.432Z,8.70
2017-12-24T03:39:25.868Z,8.60
2017-12-24T03:41:53.304Z,8.60
2017-12-24T03:44:20.757Z,8.50
2017-12-24T03:46:48.961Z,8.50
2017-12-24T03:49:16.519Z,8.50
2017-12-24T03:51:43.952Z,8.50
2017-12-24T03:54:11.387Z,8.60
2017-12-24T03:56:38.811Z,8.50
2017-12-24T03:59:06.264Z,8.50
2017-12-24T04:01:33.699Z,8.50
2017-12-24T04:04:01.168Z,8.50
2017-12-24T04:06:28.609Z,8.60
2017-12-24T04:08:56.055Z,8.50
2017-12-24T04:11:23.493Z,8.50
2017-12-24T04:13:51.726Z,8.50
2017-12-24T04:16:19.154Z,8.50
2017-12-24T04:18:46.662Z,8.50
2017-12-24T04:21:14.928Z,8.50
2017-12-24T04:23:42.383Z,8.50
2017-12-24T04:26:09.818Z,8.50
2017-12-24T04:28:37.267Z,8.50
2017-12-24T04:31:04.704Z,8.50
2017-12-24T04:33:32.189Z,8.60
2017-12-24T04:35:59.641Z,8.60
2017-12-24T04:38:27.079Z,8.60
2017-12-24T04:40:54.540Z,8.70
2017-12-24T04:43:21.995Z,8.60
2017-12-24T04:45:49.451Z,8.50
2017-12-24T04:48:16.875Z,8.50
2017-12-24T04:50:44.312Z,8.50
2017-12-24T04:53:12.535Z,8.50
2017-12-24T04:55:39.977Z,8.50
2017-12-24T04:58:07.418Z,8.60
2017-12-24T05:00:34.859Z,8.50
2017-12-24T05:03:03.067Z,8.60
2017-12-24T05:05:30.659Z,8.60
2017-12-24T05:07:58.108Z,8.50
2017-12-24T05:10:25.555Z,8.50
2017-12-24T05:12:53.019Z,8.50
2017-12-24T05:15:20.476Z,8.50
2017-12-24T05:17:47.937Z,8.50
2017-12-24T05:20:15.388Z,8.50
2017-12-24T05:22:42.823Z,8.60
2017-12-24T05:25:10.276Z,8.50
2017-12-24T05:27:37.973Z,8.60
2017-12-24T05:30:05.381Z,8.60
2017-12-24T05:32:32.823Z,8.60
2017-12-24T05:35:00.886Z,8.50
2017-12-24T05:37:28.339Z,8.50
2017-12-24T05:39:56.568Z,8.50
2017-12-24T05:42:24.000Z,8.50
2017-12-24T05:44:51.464Z,8.60
2017-12-24T05:47:18.910Z,8.60
2017-12-24T05:49:46.367Z,8.50
2017-12-24T05:52:13.819Z,8.50
2017-12-24T05:54:41.267Z,8.50
2017-12-24T05:57:08.720Z,8.50
2017-12-24T05:59:36.164Z,8.50
2017-12-24T06:02:04.407Z,8.50
2017-12-24T06:04:31.838Z,8.50
2017-12-24T06:06:59.288Z,8.50
2017-12-24T06:09:26.735Z,8.60
2017-12-24T06:11:54.188Z,8.50
2017-12-24T06:14:21.651Z,8.50
2017-12-24T06:16:49.079Z,8.60
2017-12-24T06:19:16.633Z,8.60
2017-12-24T06:21:47.988Z,8.50
2017-12-24T06:24:15.430Z,8.60
2017-12-24T06:26:43.655Z,8.60
2017-12-24T06:29:11.106Z,8.50
2017-12-24T06:31:38.535Z,8.60
2017-12-24T06:34:06.003Z,8.50
2017-12-24T06:36:33.444Z,8.50
2017-12-24T06:39:00.891Z,8.50
2017-12-24T06:41:28.349Z,8.50
2017-12-24T06:43:55.809Z,8.50
2017-12-24T06:46:23.249Z,8.50
2017-12-24T06:48:51.467Z,8.60
2017-12-24T06:51:18.988Z,8.50
2017-12-24T06:53:46.409Z,8.60
2017-12-24T06:56:13.867Z,8.50
2017-12-24T06:58:41.335Z,8.50
2017-12-24T07:01:08.767Z,8.60
2017-12-24T07:03:36.293Z,8.50
2017-12-24T07:06:03.728Z,8.50
2017-12-24T07:08:31.164Z,8.60
2017-12-24T07:10:59.389Z,8.50
2017-12-24T07:13:26.834Z,8.50
2017-12-24T07:15:54.274Z,8.60
2017-12-24T07:18:21.727Z,8.60
2017-12-24T07:20:49.179Z,8.60
2017-12-24T07:23:16.650Z,8.60
2017-12-24T07:25:44.083Z,8.60
2017-12-24T07:28:12.303Z,8.60
2017-12-24T07:30:39.741Z,8.60
2017-12-24T07:33:07.197Z,8.60
2017-12-24T07:35:38.596Z,8.60
2017-12-24T07:38:06.052Z,8.50
2017-12-24T07:40:33.502Z,8.60
2017-12-24T07:43:00.951Z,8.70
2017-12-24T07:45:28.383Z,8.60
2017-12-24T07:47:55.836Z,8.70
2017-12-24T07:50:23.295Z,8.60
2017-12-24T07:52:50.728Z,8.60
2017-12-24T07:55:18.175Z,8.60
2017-12-24T07:57:45.641Z,8.70
2017-12-24T08:00:13.099Z,8.70
2017-12-24T08:02:40.571Z,8.70
2017-12-24T08:05:08.032Z,8.70
2017-12-24T08:07:35.469Z,8.60
2017-12-24T08:10:03.002Z,8.70
2017-12-24T08:12:31.215Z,8.70
2017-12-24T08:14:58.663Z,8.70
2017-12-24T08:17:26.117Z,8.70
2017-12-24T08:19:53.555Z,8.60
2017-12-24T08:22:21.003Z,8.70
2017-12-24T08:24:49.202Z,8.70
2017-12-24T08:27:16.650Z,8.70
2017-12-24T08:29:44.091Z,8.70
2017-12-24T08:32:11.544Z,8.80
2017-12-24T08:34:38.984Z,8.70
2017-12-24T08:37:07.203Z,8.80
2017-12-24T08:39:34.640Z,8.70
2017-12-24T08:42:02.096Z,8.70
2017-12-24T08:44:29.524Z,8.70
2017-12-24T08:46:57.768Z,8.70
2017-12-24T08:49:25.195Z,8.70
2017-12-24T08:51:52.663Z,8.80
2017-12-24T08:54:20.126Z,8.80
2017-12-24T08:56:47.561Z,8.80
2017-12-24T08:59:15.026Z,8.80
2017-12-24T09:01:43.076Z,8.80
2017-12-24T09:04:10.540Z,8.80
2017-12-24T09:06:37.983Z,8.80
2017-12-24T09:09:05.467Z,8.80
2017-12-24T09:11:32.928Z,8.80
2017-12-24T09:14:00.351Z,8.80
2017-12-24T09:16:27.815Z,8.90
2017-12-24T09:18:55.238Z,8.90
2017-12-24T09:21:23.488Z,9.00
2017-12-24T09:23:50.923Z,9.00
2017-12-24T09:26:18.443Z,9.00
2017-12-24T09:28:46.751Z,9.00
2017-12-24T09:31:14.173Z,9.00
2017-12-24T09:33:42.399Z,8.90
2017-12-24T09:36:09.830Z,8.90
2017-12-24T09:38:37.308Z,8.90
2017-12-24T09:41:04.734Z,9.00
2017-12-24T09:43:32.279Z,9.00
2017-12-24T09:45:59.712Z,9.00
2017-12-24T09:48:27.935Z,9.00
2017-12-24T09:50:55.379Z,9.00
2017-12-24T09:53:22.836Z,9.00
2017-12-24T09:55:50.294Z,9.00
2017-12-24T09:58:17.744Z,9.00
2017-12-24T10:00:45.168Z,9.00
2017-12-24T10:03:13.480Z,9.00
2017-12-24T10:05:40.928Z,9.00
2017-12-24T10:08:08.364Z,9.10
2017-12-24T10:10:36.583Z,9.20
2017-12-24T10:13:04.038Z,9.20
2017-12-24T10:15:31.491Z,9.20
2017-12-24T10:17:58.915Z,9.20
2017-12-24T10:20:26.388Z,9.30
2017-12-24T10:22:53.823Z,9.30
2017-12-24T10:25:21.276Z,9.20
2017-12-24T10:27:48.780Z,9.10
2017-12-24T10:30:16.320Z,9.20
2017-12-24T10:32:45.019Z,9.10
2017-12-24T10:35:12.500Z,9.10
2017-12-24T10:37:39.998Z,9.10
2017-12-24T10:40:07.567Z,9.20
2017-12-24T10:42:35.015Z,9.00
2017-12-24T10:45:02.476Z,9.10
2017-12-24T10:47:29.963Z,9.10
2017-12-24T10:49:57.410Z,9.10
2017-12-24T10:52:24.881Z,9.10
2017-12-24T10:54:54.792Z,9.10
2017-12-24T10:57:22.239Z,9.00
2017-12-24T10:59:49.675Z,9.00
2017-12-24T11:02:17.124Z,9.00
2017-12-24T11:04:44.560Z,9.00
2017-12-24T11:07:12.821Z,9.00
2017-12-24T11:09:40.505Z,9.00
2017-12-24T11:12:08.734Z,9.00
2017-12-24T11:14:36.156Z,9.00
2017-12-24T11:17:03.616Z,9.10
2017-12-24T11:19:31.040Z,9.10
2017-12-24T11:21:59.251Z,9.00
2017-12-24T11:24:26.702Z,9.00
2017-12-24T11:26:54.148Z,9.00
2017-12-24T11:29:21.605Z,9.00
2017-12-24T11:31:49.046Z,9.00
2017-12-24T11:34:16.499Z,9.00
2017-12-24T11:36:43.964Z,9.00
2017-12-24T11:39:11.408Z,9.00
2017-12-24T11:41:38.931Z,9.00
2017-12-24T11:44:06.359Z,9.00
2017-12-24T11:46:33.808Z,9.00
2017-12-24T11:49:01.276Z,9.00
2017-12-24T11:51:28.741Z,9.10
2017-12-24T11:53:56.175Z,9.10
2017-12-24T11:56:23.700Z,9.10
2017-12-24T11:58:51.919Z,9.00
2017-12-24T12:01:19.388Z,9.00
2017-12-24T12:03:46.831Z,9.00
2017-12-24T12:06:14.284Z,9.00
2017-12-24T12:08:41.727Z,8.90
2017-12-24T12:11:09.182Z,9.00
2017-12-24T12:13:36.655Z,9.00
2017-12-24T12:16:04.088Z,9.00
2017-12-24T12:18:31.545Z,9.00
2017-12-24T12:20:59.041Z,9.00
2017-12-24T12:23:26.511Z,9.00
2017-12-24T12:25:53.938Z,8.90
2017-12-24T12:28:21.412Z,8.90
2017-12-24T12:30:48.863Z,8.90
2017-12-24T12:33:16.435Z,9.00
2017-12-24T12:35:43.875Z,9.00
2017-12-24T12:38:11.316Z,9.00
2017-12-24T12:40:39.367Z,9.10
2017-12-24T12:43:06.801Z,9.10
2017-12-24T12:45:34.257Z,9.20
2017-12-24T12:48:01.702Z,9.10
2017-12-24T12:50:29.926Z,9.00
2017-12-24T12:52:57.356Z,9.00
2017-12-24T12:55:24.816Z,9.00
2017-12-24T12:57:52.252Z,9.10
2017-12-24T13:00:19.703Z,9.00
2017-12-24T13:02:47.903Z,9.10
2017-12-24T13:05:15.351Z,9.10
2017-12-24T13:07:42.824Z,9.10
2017-12-24T13:10:10.292Z,9.00
2017-12-24T13:12:37.752Z,9.00
2017-12-24T13:15:05.200Z,9.00
2017-12-24T13:17:32.645Z,9.00
2017-12-24T13:20:00.121Z,9.00
2017-12-24T13:22:27.578Z,9.00
2017-12-24T13:24:55.003Z,9.10
2017-12-24T13:27:22.433Z,9.00
2017-12-24T13:29:50.652Z,9.00
2017-12-24T13:32:18.123Z,9.00
2017-12-24T13:34:45.673Z,9.00
2017-12-24T13:37:13.114Z,9.00
2017-12-24T13:39:40.579Z,9.00
2017-12-24T13:42:08.237Z,9.10
2017-12-24T13:44:36.515Z,9.10
2017-12-24T13:47:03.959Z,9.00
2017-12-24T13:49:31.409Z,9.10
2017-12-24T13:51:58.843Z,9.10
2017-12-24T13:54:26.297Z,9.10
2017-12-24T13:56:54.492Z,9.10
2017-12-24T13:59:22.655Z,9.00
2017-12-24T14:01:50.088Z,9.00
2017-12-24T14:04:18.312Z,9.00
2017-12-24T14:06:45.773Z,9.00
2017-12-24T14:09:13.199Z,9.00
2017-12-24T14:11:40.678Z,8.90
2017-12-24T14:14:08.160Z,8.90
2017-12-24T14:16:35.609Z,8.90
2017-12-24T14:19:03.048Z,8.90
2017-12-24T14:21:30.501Z,9.00
2017-12-24T14:23:57.947Z,9.10
2017-12-24T14:26:25.388Z,8.90
2017-12-24T14:28:52.882Z,8.90
2017-12-24T14:31:20.343Z,8.80
2017-12-24T14:33:47.781Z,8.90
2017-12-24T14:36:15.943Z,8.90
2017-12-24T14:38:43.364Z,9.00
2017-12-24T14:41:11.587Z,8.90
2017-12-24T14:43:39.034Z,8.80
2017-12-24T14:46:06.486Z,8.90
2017-12-24T14:48:33.963Z,8.80
2017-12-24T14:51:01.430Z,8.80
2017-12-24T14:53:28.888Z,8.80
2017-12-24T14:55:56.323Z,8.80
2017-12-24T14:58:23.776Z,8.80
2017-12-24T15:00:51.275Z,8.80
2017-12-24T15:03:19.494Z,8.80
2017-12-24T15:05:46.927Z,8.80
2017-12-24T15:08:14.400Z,8.80
2017-12-24T15:10:41.828Z,8.80
2017-12-24T15:13:10.052Z,8.80
2017-12-24T15:15:37.475Z,8.80
2017-12-24T15:18:05.025Z,8.80
2017-12-24T15:20:32.481Z,8.80
2017-12-24T15:22:59.907Z,8.80
2017-12-24T15:25:27.380Z,8.80
2017-12-24T15:27:55.587Z,8.80
2017-12-24T15:30:23.040Z,8.80
2017-12-24T15:32:50.511Z,8.80
2017-12-24T15:35:17.972Z,8.80
2017-12-24T15:37:45.431Z,8.70
2017-12-24T15:40:12.895Z,8.70
2017-12-24T15:42:40.364Z,8.70
2017-12-24T15:45:07.801Z,8.70
2017-12-24T15:47:35.242Z,8.70
2017-12-24T15:50:02.670Z,8.70
2017-12-24T15:52:30.129Z,8.80
2017-12-24T15:54:57.559Z,8.80
2017-12-24T15:57:25.784Z,8.80
2017-12-24T15:59:53.251Z,8.80
2017-12-24T16:02:20.793Z,8.80
2017-12-24T16:04:48.229Z,8.80
2017-12-24T16:07:15.677Z,8.80
2017-12-24T16:09:43.893Z,8.80
2017-12-24T16:12:11.323Z,8.80
2017-12-24T16:14:38.776Z,8.90
2017-12-24T16:17:06.240Z,8.90
2017-12-24T16:19:33.706Z,8.90
2017-12-24T16:22:01.144Z,8.80
2017-12-24T16:24:28.603Z,8.80
2017-12-24T16:26:56.025Z,8.80
2017-12-24T16:29:23.485Z,8.70
2017-12-24T16:31:51.712Z,8.80
2017-12-24T16:34:19.259Z,8.80
2017-12-24T16:36:46.687Z,8.80
2017-12-24T16:39:14.135Z,8.80
2017-12-24T16:41:42.343Z,8.80
2017-12-24T16:44:09.925Z,8.80
2017-12-24T16:46:37.385Z,8.90
2017-12-24T16:49:04.874Z,8.90
2017-12-24T16:51:33.076Z,8.80
2017-12-24T16:54:00.597Z,8.80
2017-12-24T16:56:28.028Z,8.80
2017-12-24T16:58:55.467Z,8.70
2017-12-24T17:01:22.961Z,8.70
2017-12-24T17:03:50.388Z,8.80
2017-12-24T17:06:17.846Z,8.80
2017-12-24T17:08:45.281Z,8.80
2017-12-24T17:11:12.733Z,8.80
2017-12-24T17:13:40.177Z,8.90
2017-12-24T17:16:07.635Z,8.80
2017-12-24T17:18:35.104Z,8.80
2017-12-24T17:21:02.563Z,8.80
2017-12-24T17:23:30.536Z,8.80
2017-12-24T17:25:57.959Z,8.70
2017-12-24T17:28:25.489Z,8.70
2017-12-24T17:30:52.856Z,8.70
2017-12-24T17:33:21.083Z,8.60
2017-12-24T17:35:48.525Z,8.60
2017-12-24T17:40:48.075Z,8.60
2017-12-24T17:43:15.551Z,8.50
2017-12-24T17:45:42.981Z,8.50
2017-12-24T17:48:10.457Z,8.50
2017-12-24T17:50:37.903Z,8.50
2017-12-24T17:53:05.373Z,8.60
2017-12-24T17:55:32.829Z,8.60
2017-12-24T17:58:00.256Z,8.60
2017-12-24T18:00:27.700Z,8.60
2017-12-24T18:02:55.134Z,8.70
2017-12-24T18:05:22.589Z,8.60
2017-12-24T18:07:50.031Z,8.60
2017-12-24T18:10:17.472Z,8.60
2017-12-24T18:12:45.709Z,8.60
2017-12-24T18:15:13.163Z,8.60
2017-12-24T18:17:40.601Z,8.60
2017-12-24T18:20:08.090Z,8.60
2017-12-24T18:22:35.532Z,8.70
2017-12-24T18:25:02.996Z,8.70
2017-12-24T18:27:30.492Z,8.70
2017-12-24T18:29:58.691Z,8.70
2017-12-24T18:32:26.140Z,8.70
2017-12-24T18:34:53.650Z,8.70
2017-12-24T18:37:21.119Z,8.60
2017-12-24T18:39:48.552Z,8.50
2017-12-24T18:42:16.026Z,8.50
2017-12-24T18:44:43.484Z,8.50
2017-12-24T18:47:10.948Z,8.50
2017-12-24T18:49:40.083Z,8.50
2017-12-24T18:52:09.119Z,8.50
2017-12-24T18:54:36.550Z,8.50
2017-12-24T18:57:04.023Z,8.50
2017-12-24T18:59:31.460Z,8.50
2017-12-24T19:01:59.774Z,8.50
2017-12-24T19:04:27.229Z,8.60
2017-12-24T19:06:55.844Z,8.50
2017-12-24T19:09:23.271Z,8.50
2017-12-24T19:11:51.526Z,8.50
2017-12-24T19:14:19.988Z,8.50
2017-12-24T19:16:47.439Z,8.50
2017-12-24T19:19:14.902Z,8.50
2017-12-24T19:21:42.341Z,8.50
2017-12-24T19:24:10.138Z,8.50
2017-12-24T19:26:37.281Z,8.50
2017-12-24T19:29:05.304Z,8.50
2017-12-24T19:31:32.743Z,8.60
2017-12-24T19:34:01.732Z,8.60
2017-12-24T19:36:30.802Z,8.60
2017-12-24T19:38:58.864Z,8.50
2017-12-24T19:41:26.795Z,8.50
2017-12-24T19:43:54.288Z,8.60
2017-12-24T19:46:21.721Z,8.50
2017-12-24T19:48:49.225Z,8.50
2017-12-24T19:51:16.668Z,8.50
2017-12-24T19:53:44.126Z,8.50
2017-12-24T19:56:11.572Z,8.50
2017-12-24T19:58:39.011Z,8.60
2017-12-24T20:01:06.467Z,8.60
2017-12-24T20:03:34.484Z,8.60
2017-12-24T20:06:02.699Z,8.60
2017-12-24T20:08:30.169Z,8.60
2017-12-24T20:10:58.879Z,8.60
2017-12-24T20:13:27.148Z,8.60
2017-12-24T20:15:57.404Z,8.60
2017-12-24T20:18:24.916Z,8.60
2017-12-24T20:20:53.842Z,8.70
2017-12-24T20:23:22.048Z,8.60
2017-12-24T20:25:49.484Z,8.60
2017-12-24T20:28:17.739Z,8.60
2017-12-24T20:30:45.947Z,8.60
2017-12-24T20:33:13.412Z,8.60
2017-12-24T20:35:40.879Z,8.60
2017-12-24T20:38:08.956Z,8.60
2017-12-24T20:40:37.263Z,8.60
2017-12-24T20:43:09.430Z,8.60
2017-12-24T20:48:11.901Z,8.50
2017-12-24T20:50:39.349Z,8.50
2017-12-24T20:53:06.812Z,8.50
2017-12-24T20:55:34.344Z,8.50
2017-12-24T20:58:01.849Z,8.50
2017-12-24T21:00:30.532Z,8.50
2017-12-24T21:03:00.174Z,8.50
2017-12-24T21:05:27.617Z,8.50
2017-12-24T21:07:55.080Z,8.50
2017-12-24T21:10:22.678Z,8.50
2017-12-24T21:12:50.143Z,8.50
2017-12-24T21:15:17.609Z,8.40
2017-12-24T21:17:45.020Z,8.40
2017-12-24T21:20:13.392Z,8.40
2017-12-24T21:22:41.541Z,8.50
2017-12-24T21:25:09.768Z,8.50
2017-12-24T21:27:37.224Z,8.50
2017-12-24T21:30:04.703Z,8.50
2017-12-24T21:32:32.229Z,8.50
2017-12-24T21:34:59.691Z,8.50
2017-12-24T21:37:27.250Z,8.50
2017-12-24T21:39:54.759Z,8.50
2017-12-24T21:42:22.193Z,8.50
2017-12-24T21:44:49.620Z,8.50
2017-12-24T21:47:17.144Z,8.50
2017-12-24T21:49:45.352Z,8.50
2017-12-24T21:52:12.898Z,8.50
2017-12-24T21:54:40.375Z,8.40
2017-12-24T21:57:07.897Z,8.50
2017-12-24T21:59:35.393Z,8.40
2017-12-24T22:02:02.917Z,8.40
2017-12-24T22:04:30.489Z,8.50
2017-12-24T22:06:57.951Z,8.50
2017-12-24T22:09:25.399Z,8.50
2017-12-24T22:11:52.880Z,8.50
2017-12-24T22:14:21.144Z,8.50
2017-12-24T22:16:48.616Z,8.40
2017-12-24T22:19:16.103Z,8.50
2017-12-24T22:21:44.374Z,8.40
2017-12-24T22:24:16.927Z,8.50
2017-12-24T22:26:45.606Z,8.40
2017-12-24T22:29:14.433Z,8.50
2017-12-24T22:31:42.675Z,8.40
2017-12-24T22:34:10.140Z,8.40
2017-12-24T22:36:38.766Z,8.30
2017-12-24T22:39:06.241Z,8.40
2017-12-24T22:41:35.543Z,8.30
2017-12-24T22:44:03.229Z,8.30
2017-12-24T22:46:31.537Z,8.30
2017-12-24T22:49:01.461Z,8.30
2017-12-24T22:51:28.922Z,8.30
2017-12-24T22:53:56.409Z,8.20
2017-12-24T22:56:25.374Z,8.30
2017-12-24T22:58:52.993Z,8.30
2017-12-24T23:01:20.424Z,8.30
2017-12-24T23:03:48.456Z,8.40
2017-12-24T23:06:17.092Z,8.30
2017-12-24T23:08:45.028Z,8.30
2017-12-24T23:11:12.498Z,8.30
2017-12-24T23:13:39.928Z,8.30
2017-12-24T23:16:08.528Z,8.30
2017-12-24T23:18:36.035Z,8.30
2017-12-24T23:21:04.270Z,8.30
2017-12-24T23:23:31.714Z,8.30
2017-12-24T23:26:01.300Z,8.30
2017-12-24T23:28:29.451Z,8.30
2017-12-24T23:30:56.946Z,8.30
2017-12-24T23:33:24.496Z,8.30
2017-12-24T23:35:52.727Z,8.30
2017-12-24T23:38:21.009Z,8.30
2017-12-24T23:40:50.372Z,8.30
2017-12-24T23:43:18.372Z,8.30
2017-12-24T23:45:46.767Z,8.30
2017-12-24T23:48:14.978Z,8.30
2017-12-24T23:50:42.407Z,8.30
2017-12-24T23:53:10.477Z,8.30
2017-12-24T23:55:37.919Z,8.30
2017-12-24T23:58:05.383Z,8.30
